Time;durP1;ratioP1;P1;durP2;ratioP2;P2;SDS_P1;SDS_P2;PMS_P1;PMS_P2;Temp;Humidity;BMP_temperature;BMP_pressure;BME280_temperature;BME280_humidity;BME280_pressure;Samples;Min_cycle;Max_cycle;Signal;HPM_P1;HPM_P2
2024/04/03 00:00:42;;;;;;;8.30;2.92;;;17.20;78.80;;;;;;5018286;28;20084;-75
2024/04/03 00:03:07;;;;;;;7.75;2.88;;;17.20;78.80;;;;;;5022054;28;20137;-74
2024/04/03 00:05:33;;;;;;;6.23;3.00;;;17.20;78.70;;;;;;5028075;28;20124;-75
2024/04/03 00:07:59;;;;;;;7.67;3.10;;;17.20;78.70;;;;;;5025088;28;20056;-75
2024/04/03 00:10:25;;;;;;;6.47;3.23;;;17.20;78.70;;;;;;5029205;28;20025;-75
2024/04/03 00:12:51;;;;;;;8.10;2.67;;;17.20;78.70;;;;;;5024490;28;20036;-75
2024/04/03 00:15:16;;;;;;;5.20;2.60;;;17.20;78.70;;;;;;5029062;28;20097;-75
2024/04/03 00:17:42;;;;;;;5.03;2.50;;;17.20;78.80;;;;;;5020684;28;20379;-75
2024/04/03 00:20:09;;;;;;;4.57;2.50;;;17.20;78.80;;;;;;5019591;28;20029;-74
2024/04/03 00:22:35;;;;;;;;;;;17.20;78.70;;;;;;5028183;28;20577;-77
2024/04/03 00:25:01;;;;;;;8.30;2.95;;;17.20;78.70;;;;;;5017421;28;20004;-76
2024/04/03 00:27:28;;;;;;;9.73;2.75;;;17.20;78.80;;;;;;5029352;28;20032;-77
2024/04/03 00:29:53;;;;;;;8.07;2.97;;;17.10;78.80;;;;;;5019199;28;20084;-76
2024/04/03 00:32:19;;;;;;;6.33;2.53;;;17.10;78.80;;;;;;5027530;28;20033;-75
2024/04/03 00:34:45;;;;;;;6.03;2.37;;;17.10;78.80;;;;;;5023363;28;20379;-74
2024/04/03 00:37:11;;;;;;;7.03;2.97;;;17.10;78.80;;;;;;5026430;28;20037;-75
2024/04/03 00:39:37;;;;;;;5.40;2.35;;;17.10;78.80;;;;;;5023321;28;20044;-75
2024/04/03 00:42:03;;;;;;;6.97;2.47;;;17.10;78.80;;;;;;5024452;28;20041;-75
2024/04/03 00:44:28;;;;;;;6.77;2.93;;;17.10;78.70;;;;;;5015257;28;20108;-75
2024/04/03 00:46:54;;;;;;;7.60;2.40;;;17.10;78.70;;;;;;5019309;28;20057;-75
2024/04/03 00:49:21;;;;;;;4.40;2.23;;;17.10;78.70;;;;;;5022986;28;20041;-75
2024/04/03 00:51:50;;;;;;;5.60;2.35;;;17.10;78.60;;;;;;5022950;28;20026;-75
2024/04/03 00:54:21;;;;;;;7.15;2.65;;;17.10;78.70;;;;;;5025917;28;20454;-75
2024/04/03 00:56:47;;;;;;;4.78;2.33;;;17.10;78.70;;;;;;5017028;28;20505;-75
2024/04/03 00:59:14;;;;;;;5.35;2.67;;;17.10;78.70;;;;;;5015757;28;20072;-74
2024/04/03 01:01:40;;;;;;;;;;;17.10;78.70;;;;;;5019979;28;20056;-74
2024/04/03 01:04:05;;;;;;;6.10;2.45;;;17.10;78.70;;;;;;5023784;28;19912;-77
2024/04/03 01:06:31;;;;;;;4.90;2.50;;;17.00;78.70;;;;;;5025397;28;20109;-76
2024/04/03 01:08:56;;;;;;;8.07;2.10;;;17.10;78.70;;;;;;5027556;28;20108;-75
2024/04/03 01:11:22;;;;;;;4.90;2.60;;;17.00;78.70;;;;;;5028480;28;20049;-75
2024/04/03 01:13:48;;;;;;;5.97;2.53;;;17.00;78.80;;;;;;5024911;28;20143;-74
2024/04/03 01:16:13;;;;;;;4.67;2.20;;;17.00;78.70;;;;;;5023619;28;20121;-75
2024/04/03 01:18:39;;;;;;;4.53;2.30;;;17.00;78.70;;;;;;5014291;28;20042;-75
2024/04/03 01:21:05;;;;;;;4.67;2.37;;;17.00;78.70;;;;;;5027275;28;20029;-75
2024/04/03 01:23:30;;;;;;;5.03;2.43;;;17.00;78.60;;;;;;5029280;28;20040;-75
2024/04/03 01:25:56;;;;;;;5.43;2.43;;;17.00;78.60;;;;;;5021501;28;20037;-76
2024/04/03 01:28:23;;;;;;;3.87;2.13;;;17.00;78.50;;;;;;5029790;28;20025;-75
2024/04/03 01:30:49;;;;;;;4.93;2.25;;;17.00;78.60;;;;;;5024080;28;20030;-75
2024/04/03 01:33:15;;;;;;;3.80;1.88;;;17.00;78.60;;;;;;5024014;28;20041;-75
2024/04/03 01:35:41;;;;;;;5.37;1.80;;;17.00;78.60;;;;;;5016299;28;20486;-75
2024/04/03 01:38:07;;;;;;;6.27;2.27;;;17.00;78.60;;;;;;5027379;28;20029;-75
2024/04/03 01:40:32;;;;;;;4.50;2.23;;;16.90;78.60;;;;;;5025712;28;20030;-74
2024/04/03 01:42:58;;;;;;;3.17;1.93;;;16.90;78.60;;;;;;5012206;28;20037;-75
2024/04/03 01:45:24;;;;;;;4.53;1.70;;;16.90;78.60;;;;;;5025838;28;20037;-75
2024/04/03 01:47:49;;;;;;;4.40;2.27;;;16.90;78.60;;;;;;5023565;28;20462;-76
2024/04/03 01:50:20;;;;;;;6.03;2.60;;;16.90;78.60;;;;;;5020848;28;20026;-75
2024/04/03 01:52:46;;;;;;;6.38;2.03;;;16.90;78.50;;;;;;5020167;28;20052;-75
2024/04/03 01:55:11;;;;;;;4.38;2.28;;;16.90;78.60;;;;;;5025047;28;20057;-75
2024/04/03 01:57:37;;;;;;;2.93;1.70;;;16.90;78.50;;;;;;5022790;28;20091;-74
2024/04/03 02:00:04;;;;;;;5.27;2.07;;;16.90;78.50;;;;;;5027118;28;20032;-76
2024/04/03 02:02:30;;;;;;;4.85;2.20;;;16.90;78.50;;;;;;5030025;28;20029;-74
2024/04/03 02:04:55;;;;;;;3.53;1.97;;;16.90;78.40;;;;;;5026684;28;20102;-75
2024/04/03 02:07:21;;;;;;;5.83;2.33;;;16.90;78.40;;;;;;5027593;28;20026;-74
2024/04/03 02:09:47;;;;;;;4.70;2.17;;;16.90;78.40;;;;;;5031350;28;20068;-74
2024/04/03 02:12:12;;;;;;;5.07;2.17;;;16.90;78.40;;;;;;5029544;28;20050;-75
2024/04/03 02:14:38;;;;;;;6.87;2.40;;;16.80;78.40;;;;;;5026443;28;20049;-76
2024/04/03 02:17:04;;;;;;;3.67;1.70;;;16.80;78.50;;;;;;5026408;28;20017;-76
2024/04/03 02:19:30;;;;;;;4.10;2.27;;;16.80;78.50;;;;;;5022267;28;20100;-75
2024/04/03 02:21:56;;;;;;;4.83;2.27;;;16.80;78.50;;;;;;5028904;28;20017;-74
2024/04/03 02:24:21;;;;;;;3.53;2.03;;;16.80;78.60;;;;;;5023124;28;20038;-74
2024/04/03 02:26:47;;;;;;;4.90;1.90;;;16.80;78.50;;;;;;5022829;28;20056;-75
2024/04/03 02:29:16;;;;;;;9.50;2.60;;;16.80;78.50;;;;;;5028587;28;20028;-76
2024/04/03 02:31:42;;;;;;;4.53;2.03;;;16.80;78.60;;;;;;5026800;28;20026;-74
2024/04/03 02:34:08;;;;;;;2.67;1.60;;;16.80;78.60;;;;;;5027169;28;20356;-75
2024/04/03 02:36:34;;;;;;;3.28;1.90;;;16.80;78.60;;;;;;5015171;28;20203;-75
2024/04/03 02:39:00;;;;;;;4.17;2.00;;;16.80;78.70;;;;;;5021879;28;20112;-75
2024/04/03 02:41:25;;;;;;;4.80;2.23;;;16.80;78.60;;;;;;5024212;28;20029;-76
2024/04/03 02:43:51;;;;;;;2.97;1.90;;;16.80;78.60;;;;;;5029097;28;20036;-75
2024/04/03 02:46:17;;;;;;;4.60;2.17;;;16.80;78.60;;;;;;5020681;28;20038;-75
2024/04/03 02:48:43;;;;;;;5.13;2.13;;;16.80;78.50;;;;;;5025551;28;20026;-75
2024/04/03 02:51:12;;;;;;;5.57;1.70;;;16.80;78.50;;;;;;5024166;28;20267;-75
2024/04/03 02:53:38;;;;;;;3.65;2.10;;;16.80;78.50;;;;;;5024099;28;20071;-74
2024/04/03 02:56:08;;;;;;;4.47;1.77;;;16.80;78.50;;;;;;5024278;28;20029;-75
2024/04/03 02:58:35;;;;;;;3.17;1.83;;;16.80;78.50;;;;;;5031278;28;20032;-74
2024/04/03 03:01:03;;;;;;;3.78;1.88;;;16.80;78.50;;;;;;5017228;28;20073;-75
2024/04/03 03:03:32;;;;;;;3.70;1.90;;;16.70;78.60;;;;;;5024924;28;20029;-74
2024/04/03 03:06:02;;;;;;;3.97;1.70;;;16.70;78.60;;;;;;5028452;28;20061;-74
2024/04/03 03:08:30;;;;;;;3.53;1.90;;;16.70;78.60;;;;;;5027403;28;20041;-74
2024/04/03 03:10:56;;;;;;;2.83;1.70;;;16.70;78.60;;;;;;5023286;28;20021;-74
2024/04/03 03:13:26;;;;;;;4.25;2.33;;;16.70;78.60;;;;;;5024438;28;20033;-76
2024/04/03 03:15:56;;;;;;;4.57;2.00;;;16.80;78.60;;;;;;5018885;28;20061;-75
2024/04/03 03:18:23;;;;;;;2.08;1.83;;;16.70;78.60;;;;;;5027730;28;20041;-76
2024/04/03 03:20:50;;;;;;;2.85;1.80;;;16.70;78.50;;;;;;5018936;28;20037;-75
2024/04/03 03:23:17;;;;;;;4.15;1.88;;;16.70;78.40;;;;;;5029454;28;20102;-76
2024/04/03 03:25:44;;;;;;;4.03;1.70;;;16.70;78.50;;;;;;5023178;28;20032;-75
2024/04/03 03:28:10;;;;;;;3.38;1.65;;;16.70;78.50;;;;;;5022191;28;20033;-75
2024/04/03 03:30:36;;;;;;;4.30;1.80;;;16.70;78.40;;;;;;5019768;28;20522;-75
2024/04/03 03:33:02;;;;;;;3.60;1.97;;;16.70;78.30;;;;;;5026808;28;20112;-76
2024/04/03 03:35:28;;;;;;;2.50;1.60;;;16.70;78.40;;;;;;5025258;28;20041;-73
2024/04/03 03:37:54;;;;;;;5.13;1.73;;;16.70;78.50;;;;;;5018737;28;20364;-74
2024/04/03 03:40:19;;;;;;;3.77;1.43;;;16.70;78.50;;;;;;5021296;28;20030;-75
2024/04/03 03:42:45;;;;;;;3.07;1.63;;;16.70;78.50;;;;;;5025071;28;20048;-75
2024/04/03 03:45:18;;;;;;;4.53;1.80;;;16.70;78.40;;;;;;5026665;28;20100;-75
2024/04/03 03:47:44;;;;;;;3.72;1.52;;;16.70;78.50;;;;;;5018760;28;20065;-76
2024/04/03 03:52:54;;;;;;;3.72;1.40;;;16.70;78.50;;;;;;5028546;28;20040;-75
2024/04/03 03:55:19;;;;;;;4.77;1.87;;;16.60;78.50;;;;;;5030164;28;20041;-75
2024/04/03 03:57:45;;;;;;;2.63;1.23;;;16.70;78.50;;;;;;5019965;28;20079;-76
2024/04/03 04:00:11;;;;;;;2.10;1.30;;;16.60;78.40;;;;;;5024926;28;20021;-75
2024/04/03 04:02:37;;;;;;;2.35;1.45;;;16.60;78.50;;;;;;5024896;28;20080;-77
2024/04/03 04:05:03;;;;;;;2.50;1.33;;;16.60;78.50;;;;;;5021788;28;20048;-76
2024/04/03 04:07:28;;;;;;;1.93;1.27;;;16.60;78.40;;;;;;5025851;28;20463;-76
2024/04/03 04:09:54;;;;;;;3.50;1.30;;;16.60;78.50;;;;;;5019051;28;20096;-77
2024/04/03 04:12:20;;;;;;;1.97;1.33;;;16.60;78.30;;;;;;5029381;28;20025;-74
2024/04/03 04:14:53;;;;;;;4.05;2.15;;;16.60;78.40;;;;;;5029340;28;20437;-75
2024/04/03 04:17:19;;;;;;;3.20;1.55;;;16.60;78.50;;;;;;5018905;28;20735;-75
2024/04/03 04:19:45;;;;;;;1.77;1.17;;;16.60;78.50;;;;;;5019455;28;20123;-75
2024/04/03 04:22:11;;;;;;;2.15;1.30;;;16.60;78.50;;;;;;5019065;28;20475;-75
2024/04/03 04:24:38;;;;;;;3.92;1.35;;;16.60;78.60;;;;;;5027496;28;20470;-75
2024/04/03 04:27:08;;;;;;;;;;;16.60;78.50;;;;;;5019555;28;20087;-75
2024/04/03 04:29:39;;;;;;;1.90;1.23;;;16.60;78.50;;;;;;5022303;28;19963;-76
2024/04/03 04:32:09;;;;;;;1.63;1.17;;;16.60;78.60;;;;;;5019510;28;20029;-75
2024/04/03 04:34:38;;;;;;;1.77;1.10;;;16.60;78.50;;;;;;5022738;28;20120;-75
2024/04/03 04:37:04;;;;;;;1.85;1.00;;;16.50;78.50;;;;;;5018039;28;20025;-75
2024/04/03 04:39:30;;;;;;;2.10;1.20;;;16.60;78.50;;;;;;5024674;28;20514;-75
2024/04/03 04:41:55;;;;;;;2.60;1.20;;;16.60;78.60;;;;;;5026261;28;20021;-75
2024/04/03 04:44:21;;;;;;;2.33;1.10;;;16.50;78.60;;;;;;5025439;28;20033;-74
2024/04/03 04:46:51;;;;;;;1.92;1.10;;;16.50;78.60;;;;;;5019720;28;20058;-77
2024/04/03 04:49:19;;;;;;;2.28;1.27;;;16.50;78.50;;;;;;5029438;28;20025;-75
2024/04/03 04:51:45;;;;;;;1.48;1.08;;;16.50;78.50;;;;;;5030013;28;20033;-76
2024/04/03 04:54:11;;;;;;;1.60;1.00;;;16.60;78.60;;;;;;5023273;28;20036;-75
2024/04/03 04:56:40;;;;;;;2.53;1.00;;;16.50;78.60;;;;;;5026304;28;20033;-75
2024/04/03 04:59:08;;;;;;;2.58;0.95;;;16.50;78.60;;;;;;5026382;28;20487;-77
2024/04/03 05:01:36;;;;;;;1.50;1.08;;;16.50;78.60;;;;;;5018860;28;20026;-75
2024/04/03 05:04:02;;;;;;;1.48;1.15;;;16.50;78.60;;;;;;5016782;28;20021;-77
2024/04/03 05:06:29;;;;;;;1.85;0.98;;;16.50;78.60;;;;;;5020866;28;20360;-75
2024/04/03 05:08:56;;;;;;;1.80;1.08;;;16.50;78.60;;;;;;5023976;28;20406;-76
2024/04/03 05:11:22;;;;;;;3.47;1.20;;;16.50;78.60;;;;;;5019731;28;20048;-76
2024/04/03 05:13:48;;;;;;;1.90;1.07;;;16.50;78.70;;;;;;5022800;28;20034;-75
2024/04/03 05:16:18;;;;;;;3.77;0.93;;;16.50;78.70;;;;;;5019602;28;20262;-75
2024/04/03 05:18:45;;;;;;;2.63;1.20;;;16.50;78.60;;;;;;5024809;28;20095;-75
2024/04/03 05:21:11;;;;;;;2.30;1.02;;;16.50;78.60;;;;;;5022975;28;20075;-74
2024/04/03 05:23:37;;;;;;;3.53;1.38;;;16.50;78.50;;;;;;5016615;28;20030;-75
2024/04/03 05:26:09;;;;;;;3.40;1.20;;;16.50;78.60;;;;;;5025823;28;20033;-78
2024/04/03 05:28:35;;;;;;;2.58;1.00;;;16.50;78.50;;;;;;5026063;28;20026;-75
2024/04/03 05:31:06;;;;;;;1.90;0.82;;;16.40;78.50;;;;;;5022393;28;20418;-75
2024/04/03 05:33:33;;;;;;;2.33;0.98;;;16.40;78.50;;;;;;5019578;28;20025;-76
2024/04/03 05:36:03;;;;;;;1.15;0.80;;;16.40;78.50;;;;;;5029669;28;20076;-75
2024/04/03 05:38:30;;;;;;;1.80;0.95;;;16.40;78.50;;;;;;5022706;28;20065;-74
2024/04/03 05:40:56;;;;;;;1.53;1.00;;;16.40;78.50;;;;;;5016831;28;20076;-75
2024/04/03 05:43:23;;;;;;;1.33;0.87;;;16.40;78.50;;;;;;5026198;28;20025;-75
2024/04/03 05:45:55;;;;;;;1.95;1.00;;;16.40;78.50;;;;;;5018682;28;20034;-74
2024/04/03 05:48:26;;;;;;;1.83;0.98;;;16.40;78.50;;;;;;5025347;28;20126;-75
2024/04/03 05:51:06;;;;;;;1.55;1.00;;;16.40;78.60;;;;;;5021912;28;20040;-75
2024/04/03 05:53:33;;;;;;;2.47;0.80;;;16.40;78.60;;;;;;5020939;28;20084;-75
2024/04/03 05:55:59;;;;;;;;;;;16.40;78.50;;;;;;5022471;28;20030;-75
2024/04/03 05:58:25;;;;;;;1.13;0.90;;;16.40;78.50;;;;;;5018514;28;19912;-75
2024/04/03 06:00:59;;;;;;;1.58;1.00;;;16.40;78.50;;;;;;5023225;28;20640;-75
2024/04/03 06:03:25;;;;;;;1.55;0.88;;;16.40;78.40;;;;;;5017953;28;20014;-75
2024/04/03 06:05:53;;;;;;;1.93;0.73;;;16.40;78.40;;;;;;5018485;28;20030;-75
2024/04/03 06:08:20;;;;;;;2.65;0.80;;;16.40;78.40;;;;;;5022629;28;20067;-75
2024/04/03 06:10:46;;;;;;;2.42;1.00;;;16.40;78.30;;;;;;5015870;28;20028;-74
2024/04/03 06:13:11;;;;;;;2.77;1.10;;;16.40;78.40;;;;;;5018009;28;20101;-75
2024/04/03 06:15:37;;;;;;;1.40;0.90;;;16.40;78.40;;;;;;5016882;28;20267;-75
2024/04/03 06:18:03;;;;;;;2.47;0.90;;;16.40;78.30;;;;;;5025212;28;20053;-76
2024/04/03 06:20:29;;;;;;;1.40;0.80;;;16.50;78.30;;;;;;5017643;28;20438;-75
2024/04/03 06:22:55;;;;;;;2.33;0.63;;;16.40;78.20;;;;;;5021863;28;20049;-75
2024/04/03 06:25:21;;;;;;;4.17;1.03;;;16.40;78.20;;;;;;5025366;28;20022;-75
2024/04/03 06:27:47;;;;;;;2.70;1.00;;;16.40;78.20;;;;;;5026843;28;20036;-76
2024/04/03 06:30:13;;;;;;;2.23;0.77;;;16.50;78.30;;;;;;5020524;28;20371;-75
2024/04/03 06:32:39;;;;;;;2.72;1.05;;;16.60;77.90;;;;;;5023509;28;20033;-75
2024/04/03 06:35:05;;;;;;;1.05;0.93;;;16.60;77.80;;;;;;5025278;28;20029;-75
2024/04/03 06:37:31;;;;;;;1.50;0.80;;;16.60;77.50;;;;;;5030767;28;20057;-75
2024/04/03 06:39:58;;;;;;;2.60;0.82;;;16.70;77.50;;;;;;5026822;28;20034;-75
2024/04/03 06:42:24;;;;;;;3.38;1.00;;;16.70;77.50;;;;;;5029505;28;20054;-75
2024/04/03 06:44:50;;;;;;;2.10;1.00;;;16.80;77.60;;;;;;5028977;28;20061;-77
2024/04/03 06:47:16;;;;;;;4.82;1.23;;;16.80;77.60;;;;;;5024868;28;20473;-75
2024/04/03 06:49:42;;;;;;;2.55;0.80;;;16.80;77.60;;;;;;5020413;28;20092;-75
2024/04/03 06:52:08;;;;;;;1.83;0.80;;;16.80;78.20;;;;;;5021041;28;20033;-75
2024/04/03 06:54:34;;;;;;;3.03;1.17;;;16.70;78.50;;;;;;5026032;28;20036;-77
2024/04/03 06:57:01;;;;;;;2.17;1.00;;;16.80;78.70;;;;;;5032026;28;20029;-75
2024/04/03 06:59:27;;;;;;;1.35;0.88;;;16.80;78.50;;;;;;5031910;28;20025;-75
2024/04/03 07:01:52;;;;;;;1.80;1.00;;;16.80;78.50;;;;;;5022153;28;20104;-76
2024/04/03 07:04:18;;;;;;;1.13;0.80;;;16.80;78.40;;;;;;5030947;28;20030;-75
2024/04/03 07:06:44;;;;;;;2.27;0.90;;;16.80;78.40;;;;;;5025382;28;20461;-75
2024/04/03 07:09:09;;;;;;;3.60;0.93;;;16.80;78.40;;;;;;5030492;28;20025;-74
2024/04/03 07:11:35;;;;;;;1.53;1.00;;;16.90;78.20;;;;;;5019597;28;20030;-75
2024/04/03 07:14:01;;;;;;;2.40;1.00;;;16.90;78.20;;;;;;5030205;28;20104;-75
2024/04/03 07:16:26;;;;;;;1.27;0.90;;;17.00;78.10;;;;;;5022680;28;20022;-76
2024/04/03 07:18:57;;;;;;;2.63;0.90;;;17.00;78.10;;;;;;5028207;28;20061;-75
2024/04/03 07:21:23;;;;;;;1.50;0.88;;;17.00;78.10;;;;;;5031764;28;20028;-75
2024/04/03 07:23:49;;;;;;;4.45;0.77;;;17.00;78.40;;;;;;5023650;28;20021;-75
2024/04/03 07:26:17;;;;;;;2.15;0.82;;;17.00;78.50;;;;;;5020445;28;20037;-75
2024/04/03 07:28:43;;;;;;;2.08;0.88;;;16.90;78.60;;;;;;5017702;28;20088;-75
2024/04/03 07:31:09;;;;;;;4.37;0.90;;;17.00;78.50;;;;;;5025299;28;20017;-74
2024/04/03 07:33:35;;;;;;;3.53;1.10;;;17.00;78.50;;;;;;5018827;28;20745;-76
2024/04/03 07:36:03;;;;;;;4.47;1.03;;;17.00;78.40;;;;;;5021510;28;20124;-75
2024/04/03 07:38:30;;;;;;;7.05;2.30;;;17.00;78.50;;;;;;5028036;28;20045;-76
2024/04/03 07:40:56;;;;;;;5.10;1.75;;;17.00;78.70;;;;;;5023365;28;20026;-75
2024/04/03 07:43:22;;;;;;;6.10;1.70;;;17.00;78.70;;;;;;5027593;28;20032;-75
2024/04/03 07:45:48;;;;;;;2.30;1.60;;;17.00;78.90;;;;;;5025811;28;20034;-78
2024/04/03 07:48:13;;;;;;;8.10;1.70;;;17.00;78.90;;;;;;5027835;28;20458;-76
2024/04/03 07:50:40;;;;;;;4.93;1.43;;;17.00;78.80;;;;;;5024535;28;20115;-77
2024/04/03 07:53:07;;;;;;;1.38;1.27;;;17.00;78.60;;;;;;5026581;28;20029;-75
2024/04/03 07:55:35;;;;;;;13.48;10.93;;;17.10;78.70;;;;;;5026170;28;20033;-75
2024/04/03 07:58:02;;;;;;;8.43;6.80;;;17.10;78.30;;;;;;5026488;28;20103;-76
2024/04/03 08:00:28;;;;;;;11.45;6.85;;;17.10;78.90;;;;;;5041979;28;20112;-74
2024/04/03 08:02:54;;;;;;;9.67;6.20;;;17.10;78.80;;;;;;5029880;28;20506;-74
2024/04/03 08:05:20;;;;;;;6.80;6.10;;;17.10;78.70;;;;;;5021580;28;20413;-75
2024/04/03 08:07:46;;;;;;;10.70;5.37;;;17.20;78.70;;;;;;5009174;28;20042;-76
2024/04/03 08:10:12;;;;;;;8.33;4.93;;;17.20;78.60;;;;;;5022169;28;20037;-76
2024/04/03 08:12:39;;;;;;;6.57;4.53;;;17.20;78.60;;;;;;5026629;28;20021;-75
2024/04/03 08:15:14;;;;;;;7.65;4.65;;;17.20;78.40;;;;;;5027362;28;20025;-73
2024/04/03 08:17:40;;;;;;;5.97;4.28;;;17.20;78.20;;;;;;5026762;28;20030;-77
2024/04/03 08:20:07;;;;;;;5.47;4.20;;;17.30;78.40;;;;;;5026859;28;20021;-75
2024/04/03 08:22:33;;;;;;;4.82;3.63;;;17.30;78.20;;;;;;5024874;28;20052;-76
2024/04/03 08:24:58;;;;;;;6.07;3.93;;;17.30;78.30;;;;;;5018418;28;20463;-76
2024/04/03 08:27:24;;;;;;;6.70;3.70;;;17.30;78.30;;;;;;5024956;28;20045;-76
2024/04/03 08:29:55;;;;;;;5.17;3.17;;;17.30;78.30;;;;;;5025629;28;20026;-76
2024/04/03 08:32:21;;;;;;;6.35;3.28;;;17.30;78.30;;;;;;5025788;28;20370;-77
2024/04/03 08:34:51;;;;;;;5.07;3.65;;;17.30;78.30;;;;;;5025820;28;20443;-76
2024/04/03 08:37:19;;;;;;;5.25;3.33;;;17.30;78.40;;;;;;5025554;28;20136;-77
2024/04/03 08:39:45;;;;;;;6.13;3.80;;;17.30;78.30;;;;;;5026113;28;20029;-76
2024/04/03 08:42:12;;;;;;;4.13;3.30;;;17.30;78.30;;;;;;5021089;28;20017;-76
2024/04/03 08:44:38;;;;;;;4.55;3.47;;;17.30;78.30;;;;;;5020813;28;20286;-76
2024/04/03 08:47:04;;;;;;;4.50;3.38;;;17.30;78.40;;;;;;5018211;28;20434;-77
2024/04/03 08:49:33;;;;;;;5.77;3.27;;;17.30;78.10;;;;;;5018315;28;20025;-78
2024/04/03 08:52:12;;;;;;;5.75;3.17;;;17.30;77.90;;;;;;5022835;28;20026;-76
2024/04/03 08:54:43;;;;;;;7.43;3.63;;;17.30;78.10;;;;;;5016565;28;20444;-75
2024/04/03 08:57:09;;;;;;;4.80;2.70;;;17.30;78.10;;;;;;5025338;28;20025;-76
2024/04/03 08:59:38;;;;;;;3.73;2.90;;;17.30;78.30;;;;;;5021187;28;20411;-76
2024/04/03 09:02:05;;;;;;;3.45;2.80;;;17.40;78.00;;;;;;5016073;28;20262;-76
2024/04/03 09:04:32;;;;;;;3.17;2.60;;;17.40;78.20;;;;;;5024463;28;20037;-78
2024/04/03 09:06:57;;;;;;;4.57;2.58;;;17.40;78.00;;;;;;5018659;28;20535;-78
2024/04/03 09:09:25;;;;;;;3.90;2.43;;;17.40;77.70;;;;;;5017942;28;20085;-76
2024/04/03 09:12:03;;;;;;;4.55;2.88;;;17.40;78.10;;;;;;5020863;28;20797;-76
2024/04/03 09:14:29;;;;;;;4.03;2.65;;;17.40;78.50;;;;;;5018370;28;20034;-75
2024/04/03 09:17:02;;;;;;;5.20;2.60;;;17.40;78.60;;;;;;5021708;28;20041;-77
2024/04/03 09:19:30;;;;;;;7.10;2.70;;;17.50;78.40;;;;;;5017339;28;20439;-75
2024/04/03 09:21:58;;;;;;;8.70;2.83;;;17.60;78.10;;;;;;5014964;28;20437;-78
2024/04/03 09:24:24;;;;;;;6.03;2.67;;;17.60;77.90;;;;;;5010532;28;20034;-77
2024/04/03 09:26:52;;;;;;;8.52;2.35;;;17.60;77.80;;;;;;5011025;28;20033;-76
2024/04/03 09:29:19;;;;;;;4.88;2.50;;;17.70;77.70;;;;;;5014378;28;20026;-78
2024/04/03 09:31:46;;;;;;;4.18;2.30;;;17.60;77.70;;;;;;5019468;28;20076;-77
2024/04/03 09:34:12;;;;;;;5.88;2.85;;;17.80;77.30;;;;;;5018270;28;20037;-77
2024/04/03 09:36:40;;;;;;;7.10;2.97;;;18.00;76.60;;;;;;5023151;28;20584;-76
2024/04/03 09:39:09;;;;;;;3.55;2.45;;;18.20;75.80;;;;;;5012220;28;20391;-75
2024/04/03 09:41:36;;;;;;;6.20;2.58;;;18.30;75.10;;;;;;5023194;28;20095;-79
2024/04/03 09:44:03;;;;;;;5.88;2.83;;;18.40;74.90;;;;;;5018182;28;20021;-76
2024/04/03 09:46:46;;;;;;;4.00;2.20;;;18.40;74.90;;;;;;5011831;28;20258;-76
2024/04/03 09:49:16;;;;;;;3.22;2.00;;;18.50;74.60;;;;;;5020355;28;20098;-77
2024/04/03 09:51:42;;;;;;;3.03;2.22;;;18.40;74.90;;;;;;5022443;28;20029;-77
2024/04/03 09:54:10;;;;;;;4.15;2.33;;;18.30;75.40;;;;;;5018735;28;20033;-76
2024/04/03 09:56:38;;;;;;;4.22;2.10;;;18.10;75.90;;;;;;5015279;28;20040;-75
2024/04/03 09:59:06;;;;;;;3.60;2.47;;;18.20;76.10;;;;;;5021755;28;20065;-75
2024/04/03 10:01:35;;;;;;;2.60;1.67;;;18.30;75.80;;;;;;5018052;28;20033;-76
2024/04/03 10:04:05;;;;;;;3.25;2.03;;;18.30;75.60;;;;;;5014949;28;20068;-75
2024/04/03 10:06:39;;;;;;;6.72;2.08;;;18.30;75.70;;;;;;5015541;28;20592;-74
2024/04/03 10:09:30;;;;;;;2.80;1.92;;;18.30;75.30;;;;;;5020564;28;20037;-75
2024/04/03 10:11:57;;;;;;;2.45;2.00;;;18.20;75.50;;;;;;5016014;28;20100;-73
2024/04/03 10:14:27;;;;;;;3.85;2.00;;;18.10;76.00;;;;;;5027370;28;20068;-75
2024/04/03 10:16:53;;;;;;;11.65;5.47;;;18.10;76.30;;;;;;5026763;28;20021;-77
2024/04/03 10:19:20;;;;;;;;;;;18.10;76.40;;;;;;5025854;28;20038;-77
2024/04/03 10:21:46;;;;;;;;;;;18.10;76.60;;;;;;5026426;28;19905;-77
2024/04/03 10:24:12;;;;;;;8.95;4.60;;;18.10;76.80;;;;;;5025350;28;19984;-77
2024/04/03 10:26:38;;;;;;;9.67;3.50;;;18.00;77.10;;;;;;5027769;28;20305;-77
2024/04/03 10:29:03;;;;;;;9.75;3.78;;;18.00;77.20;;;;;;5027349;28;20057;-77
2024/04/03 10:31:29;;;;;;;8.53;3.47;;;18.00;77.20;;;;;;5019640;28;20494;-77
2024/04/03 10:33:55;;;;;;;7.80;3.00;;;17.90;77.30;;;;;;5030924;28;20112;-77
2024/04/03 10:36:22;;;;;;;7.33;3.00;;;18.00;77.20;;;;;;5016448;28;20409;-76
2024/04/03 10:38:47;;;;;;;;;;;18.00;77.00;;;;;;5021084;28;20017;-76
2024/04/03 10:41:13;;;;;;;5.38;2.70;;;18.00;77.00;;;;;;5024001;28;19963;-78
2024/04/03 10:43:39;;;;;;;6.37;2.70;;;18.10;77.00;;;;;;5031535;28;20116;-76
2024/04/03 10:46:11;;;;;;;4.20;2.73;;;18.10;76.80;;;;;;5027674;28;20083;-77
2024/04/03 10:48:45;;;;;;;4.60;2.50;;;18.10;76.70;;;;;;5017808;28;20030;-77
2024/04/03 10:51:10;;;;;;;7.43;3.10;;;18.10;76.80;;;;;;5020273;28;20041;-77
2024/04/03 10:53:37;;;;;;;4.57;2.33;;;18.10;76.60;;;;;;5017996;28;20029;-76
2024/04/03 10:56:03;;;;;;;6.72;3.00;;;18.10;76.70;;;;;;5014777;28;20041;-77
2024/04/03 10:58:29;;;;;;;;;;;18.10;76.90;;;;;;5025052;28;20040;-76
2024/04/03 11:00:55;;;;;;;9.48;3.00;;;18.00;76.80;;;;;;5029005;28;20531;-78
2024/04/03 11:03:22;;;;;;;4.80;2.30;;;18.10;76.70;;;;;;5017135;28;20543;-76
2024/04/03 11:05:49;;;;;;;4.47;2.45;;;18.10;76.80;;;;;;5017932;28;20834;-78
2024/04/03 11:08:15;;;;;;;3.20;1.90;;;18.00;76.90;;;;;;5030908;28;20033;-77
2024/04/03 11:10:41;;;;;;;9.60;2.50;;;18.10;76.80;;;;;;5027470;28;20030;-77
2024/04/03 11:13:09;;;;;;;3.67;2.20;;;18.10;76.70;;;;;;5021815;28;20270;-77
2024/04/03 11:15:35;;;;;;;10.40;7.05;;;18.20;76.40;;;;;;5029692;28;20033;-78
2024/04/03 11:18:01;;;;;;;11.32;6.93;;;18.30;76.00;;;;;;5023392;28;20080;-78
2024/04/03 11:20:28;;;;;;;7.87;4.60;;;18.30;76.00;;;;;;5021755;28;20061;-77
2024/04/03 11:22:56;;;;;;;6.15;3.72;;;18.50;75.40;;;;;;5029382;28;20032;-78
2024/04/03 11:25:22;;;;;;;7.35;4.35;;;18.60;74.70;;;;;;5024076;28;20056;-77
2024/04/03 11:27:49;;;;;;;10.70;3.90;;;18.60;74.90;;;;;;5017441;28;20742;-77
2024/04/03 11:30:14;;;;;;;6.60;3.85;;;18.60;75.10;;;;;;5031364;28;20034;-76
2024/04/03 11:32:40;;;;;;;8.73;4.10;;;18.50;75.80;;;;;;5017873;28;20026;-76
2024/04/03 11:35:08;;;;;;;8.73;4.03;;;18.40;76.40;;;;;;5016710;28;20136;-75
2024/04/03 11:37:35;;;;;;;9.25;3.20;;;18.40;76.70;;;;;;5028289;28;20417;-77
2024/04/03 11:40:03;;;;;;;7.47;4.05;;;18.30;77.10;;;;;;5022436;28;20022;-76
2024/04/03 11:42:30;;;;;;;6.55;3.55;;;18.30;77.40;;;;;;5022455;28;20029;-77
2024/04/03 11:44:56;;;;;;;;;;;18.30;77.40;;;;;;5015156;28;20031;-76
2024/04/03 11:47:21;;;;;;;11.33;2.87;;;18.30;77.50;;;;;;5028640;28;19913;-76
2024/04/03 11:49:47;;;;;;;7.47;3.20;;;18.30;77.70;;;;;;5030903;28;20291;-76
2024/04/03 11:52:13;;;;;;;4.93;2.80;;;18.30;77.70;;;;;;5024199;28;20025;-76
2024/04/03 11:54:38;;;;;;;8.47;3.40;;;18.40;77.50;;;;;;5021542;28;20052;-76
2024/04/03 11:57:05;;;;;;;6.23;3.03;;;18.40;77.50;;;;;;5020189;28;20021;-76
2024/04/03 11:59:31;;;;;;;6.97;3.20;;;18.40;77.40;;;;;;5030595;28;20087;-76
2024/04/03 12:01:56;;;;;;;7.50;3.47;;;18.50;77.20;;;;;;5028214;28;20033;-75
2024/04/03 12:04:23;;;;;;;6.83;3.13;;;18.60;77.00;;;;;;5018429;28;20037;-76
2024/04/03 12:06:49;;;;;;;6.20;2.70;;;18.60;76.90;;;;;;5020088;28;20041;-76
2024/04/03 12:09:14;;;;;;;4.30;2.53;;;18.60;76.70;;;;;;5023497;28;20025;-76
2024/04/03 12:11:40;;;;;;;5.67;2.20;;;18.70;76.60;;;;;;5023485;28;20033;-76
2024/04/03 12:14:08;;;;;;;4.37;2.63;;;18.50;76.50;;;;;;5022528;28;20029;-76
2024/04/03 12:16:37;;;;;;;4.13;2.70;;;18.50;76.80;;;;;;5029638;28;20518;-75
2024/04/03 12:19:13;;;;;;;3.75;2.60;;;18.50;76.80;;;;;;5022415;28;20207;-77
2024/04/03 12:21:43;;;;;;;4.65;2.55;;;18.50;77.00;;;;;;5023133;28;20048;-75
2024/04/03 12:24:09;;;;;;;7.38;3.17;;;18.50;76.90;;;;;;5016574;28;20033;-75
2024/04/03 12:26:36;;;;;;;4.75;2.72;;;18.50;76.90;;;;;;5029629;28;20057;-76
2024/04/03 12:29:03;;;;;;;6.68;2.60;;;18.50;76.90;;;;;;5024433;28;20053;-75
2024/04/03 12:31:29;;;;;;;4.57;2.90;;;18.40;76.90;;;;;;5017473;28;20029;-76
2024/04/03 12:33:55;;;;;;;6.10;2.77;;;18.40;77.00;;;;;;5020712;28;20103;-76
2024/04/03 12:36:22;;;;;;;4.77;2.40;;;18.50;77.00;;;;;;5018602;28;20406;-77
2024/04/03 12:38:48;;;;;;;5.82;2.42;;;18.50;77.10;;;;;;5024692;28;20030;-77
2024/04/03 12:41:14;;;;;;;3.67;2.37;;;18.50;77.10;;;;;;5024505;28;20026;-75
2024/04/03 12:43:40;;;;;;;5.10;2.38;;;18.50;77.10;;;;;;5020473;28;20029;-75
2024/04/03 12:46:06;;;;;;;3.73;2.30;;;18.50;77.10;;;;;;5018995;28;20550;-78
2024/04/03 12:48:32;;;;;;;4.67;2.27;;;18.50;77.30;;;;;;5016679;28;20439;-77